الصفحة الرئيسية
METAR-TAF:

METAR-TAF

مطار :

زينغشور, السنغال

دائرة عرض: 12-33N, خط طول: 016-16W, ارتفاع: 26 متر

مراقبة الطقس الحالي

تاريخ ووقت الإصدار 51 دقيقة قبل الساعة 18:00UTC
ريح 4 عقدة من الشمال الشرقي
درجة الحرارة 36°درجة مئوية
الرطوبة 27%
ضغط 1008 hPa
الرؤية 10 كم أو أكثر
الغيوم لا تقل 1500 م ولا وجود لمزنة ركامية السحاب الأسود

METAR: GOGG 211800Z 04004KT CAVOK 36/14 Q1008

زمن: 18:51 (18:51 UTC)


TAF: مفقودة

أرصاد الطقس والتوقعات من أكثر من 4000 مطار (تقارير الطقس للمطار METAR والتنبؤ بالطقس بالمطارTAF).

المحطات المتاحة هي النقط الصفراء والحمراء على الخريطة.

حرك المؤشر فوق النقطة لمعرفة اسم المحطة.

ثم انقر لمعرفة أرصاد وتوقعات الطقس.

لتغيير الخارطة: اضغط على الأزرار الخضراء مع رمز الصليب الأسود للتكبير. على الزر الأخضر مع شرطة للتصغير، أو على الأسهم الخضراء للخرائط المجاورة.


METAR-TAF: